Latest Weather Observations for Edinburgh

IDS60901

Issued at 4:01 pm CST Friday 19 April 2019 (issued every 10 minutes, with the page automatically refreshed every 10 minutes)

About weather observations | Map of Adelaide area stations | Latest observations for Adelaide area | Other Formats
Station Details ID: 023083 Name: EDINBURGH RAAF Lat: -34.71 Lon: 138.62 Height: 16.54 m
Data from the previous 72 hours. | See also: Recent months at Edinburgh
Date/Time
CST
Temp
°C
App
Temp
°C
Dew
Point
°C
Rel
Hum
%
Delta-T
°C
Wind Press
QNH
hPa
Press
MSL
hPa
Rain since
9am
mm
Dir  Spd
km/h
Gust
km/h
Spd
kts
Gust
kts
19/04:00pm 32.4 26.6 2.5 15 15.1 ENE 22 32 12 17 1017.9 1017.8 0.0
19/03:30pm 32.2 27.5 3.2 16 14.8 NE 17 26 9 14 1017.9 1017.8 0.0
19/03:00pm 32.9 27.2 2.9 15 15.3 NNE 22 35 12 19 1018.0 1017.9 0.0
19/02:30pm 34.2 29.1 2.9 14 16.1 N 19 33 10 18 1018.1 1018.0 0.0
19/02:00pm 33.5 27.7 2.4 14 15.8 NNW 22 32 12 17 1018.3 1018.2 0.0
19/01:30pm 33.1 28.0 3.0 15 15.4 N 19 30 10 16 1018.6 1018.5 0.0
19/01:00pm 32.5 27.3 2.5 15 15.2 NE 19 28 10 15 1019.1 1019.0 0.0
19/12:30pm 31.2 25.6 3.3 17 14.2 NNE 22 30 12 16 1019.6 1019.5 0.0
19/12:00pm 30.2 24.6 3.3 18 13.6 NE 22 30 12 16 1020.4 1020.3 0.0
19/11:30am 28.9 22.1 3.0 19 12.9 NE 28 35 15 19 1020.8 1020.7 0.0
19/11:00am 28.0 21.6 3.0 20 12.4 NE 26 32 14 17 1021.3 1021.2 0.0
19/10:30am 26.2 19.2 2.2 21 11.6 NE 28 37 15 20 1021.7 1021.6 0.0
19/10:00am 25.3 17.5 1.4 21 11.3 NE 32 37 17 20 1022.0 1021.9 0.0
19/09:30am 24.4 17.0 1.9 23 10.6 NE 30 37 16 20 1022.3 1022.2 0.0
19/09:00am 22.2 14.7 1.3 25 9.6 NE 30 41 16 22 1022.6 1022.5 0.0
19/08:30am 21.5 13.5 0.7 25 9.4 NE 32 43 17 23 1022.7 1022.6 0.0
19/08:00am 21.0 12.8 0.2 25 9.3 NE 33 44 18 24 1022.5 1022.4 0.0
19/07:40am 20.6 12.3 -0.1 25 9.2 NE 33 54 18 29 1022.2 1022.1 0.0
19/07:30am 20.3 11.6 -0.3 25 9.0 NE 35 46 19 25 1022.1 1022.0 0.0
19/07:00am 19.7 10.9 -0.9 25 8.9 NE 35 48 19 26 1021.8 1021.7 0.0
19/06:30am 19.6 11.3 -1.5 24 9.0 NE 32 41 17 22 1021.8 1021.7 0.0
19/06:00am 19.5 11.0 -1.6 24 8.9 ENE 33 44 18 24 1021.7 1021.6 0.0
19/05:30am 19.3 11.4 -1.7 24 8.9 ENE 30 41 16 22 1021.7 1021.6 0.0
19/05:00am 18.9 11.0 -1.5 25 8.7 NE 30 39 16 21 1021.7 1021.6 0.0
19/04:30am 18.8 11.0 -1.1 26 8.5 NE 30 37 16 20 1021.7 1021.6 0.0
19/04:00am 18.2 12.5 -1.1 27 8.2 ENE 19 26 10 14 1021.7 1021.6 0.0
19/03:30am 17.6 12.6 -1.1 28 7.9 ENE 15 19 8 10 1021.7 1021.6 0.0
19/03:00am 18.4 12.4 -1.4 26 8.3 ENE 20 32 11 17 1021.8 1021.7 0.0
19/02:30am 18.2 12.5 -1.1 27 8.2 ENE 19 28 10 15 1022.0 1021.9 0.0
19/02:00am 18.5 12.5 -1.3 26 8.4 ENE 20 28 11 15 1022.4 1022.3 0.0
19/01:30am 18.7 11.9 -1.7 25 8.6 ENE 24 35 13 19 1022.8 1022.7 0.0
19/01:00am 19.0 13.2 -1.4 25 8.7 ENE 19 28 10 15 1022.9 1022.8 0.0
19/12:30am 19.3 13.3 -1.7 24 8.9 ENE 20 26 11 14 1023.0 1022.9 0.0
19/12:00am 19.7 13.3 -2.0 23 9.1 ENE 22 28 12 15 1023.1 1023.0 0.0
 
Date/Time
CST
Temp
°C
App
Temp
°C
Dew
Point
°C
Rel
Hum
%
Delta-T
°C
Wind Press
QNH
hPa
Press
MSL
hPa
Rain since
9am
mm
Dir  Spd
km/h
Gust
km/h
Spd
kts
Gust
kts
18/11:30pm 19.5 13.4 -2.2 23 9.1 ENE 20 30 11 16 1023.3 1023.2 0.0
18/11:00pm 19.6 13.5 -2.1 23 9.2 E 20 30 11 16 1023.6 1023.5 0.0
18/10:30pm 19.8 13.8 -1.9 23 9.2 E 20 32 11 17 1023.6 1023.5 0.0
18/10:00pm 19.9 13.2 -1.2 24 9.1 E 24 37 13 20 1023.7 1023.6 0.0
18/09:30pm 19.7 13.7 -1.4 24 9.0 E 20 32 11 17 1023.7 1023.6 0.0
18/09:00pm 19.8 13.8 -1.3 24 9.0 E 20 33 11 18 1023.9 1023.8 0.0
18/08:30pm 19.9 14.5 -1.2 24 9.0 E 17 26 9 14 1023.8 1023.7 0.0
18/08:00pm 20.0 14.0 -1.2 24 9.1 E 20 28 11 15 1023.7 1023.6 0.0
18/07:30pm 20.0 14.3 -0.6 25 8.9 ENE 19 28 10 15 1023.6 1023.5 0.0
18/07:00pm 20.3 15.4 -0.3 25 9.1 E 15 22 8 12 1023.6 1023.5 0.0
18/06:30pm 20.6 15.4 -0.1 25 9.1 E 17 20 9 11 1023.6 1023.5 0.0
18/06:00pm 21.2 16.0 -0.1 24 9.4 E 17 24 9 13 1023.4 1023.3 0.0
18/05:30pm 22.0 16.3 0.5 24 9.7 E 20 28 11 15 1023.3 1023.2 0.0
18/05:00pm 22.6 17.2 1.0 24 9.9 ENE 19 26 10 14 1023.3 1023.2 0.0
18/04:30pm 22.9 17.9 1.3 24 10.0 ENE 17 24 9 13 1023.3 1023.2 0.0
18/04:00pm 23.3 17.8 1.6 24 10.2 ENE 20 28 11 15 1023.3 1023.2 0.0
18/03:30pm 22.7 17.7 1.1 24 9.9 ENE 17 24 9 13 1023.5 1023.4 0.0
18/03:00pm 23.1 18.9 1.5 24 10.0 ENE 13 28 7 15 1023.8 1023.7 0.0
18/02:30pm 22.9 19.0 1.3 24 10.0 E 11 17 6 9 1024.0 1023.9 0.0
18/02:00pm 22.8 18.9 1.2 24 10.0 E 11 22 6 12 1024.2 1024.1 0.0
18/01:30pm 22.5 17.0 0.9 24 9.9 NE 19 22 10 12 1024.5 1024.4 0.0
18/01:00pm 21.5 16.5 1.2 26 9.3 ENE 17 26 9 14 1024.9 1024.8 0.0
18/12:30pm 21.3 16.4 2.1 28 8.9 E 17 26 9 14 1025.5 1025.4 0.0
18/12:00pm 21.0 15.7 2.8 30 8.5 ENE 20 28 11 15 1026.0 1026.0 0.0
18/11:30am 20.0 15.0 3.7 34 7.7 E 19 26 10 14 1026.6 1026.6 0.0
18/11:00am 19.4 14.6 4.7 38 7.1 E 19 26 10 14 1027.0 1027.0 0.0
18/10:30am 18.9 14.1 5.4 41 6.5 ENE 20 28 11 15 1027.2 1027.2 0.0
18/10:00am 17.5 12.7 4.8 43 6.1 E 19 28 10 15 1027.4 1027.4 0.0
18/09:30am 17.1 12.4 6.0 48 5.4 E 20 28 11 15 1027.5 1027.5 0.0
18/09:00am 16.4 11.7 6.0 50 5.0 E 20 32 11 17 1027.6 1027.6 0.0
18/08:30am 15.7 11.6 6.4 54 4.5 E 17 24 9 13 1027.5 1027.5 0.0
18/08:00am 15.1 11.9 6.7 57 4.1 E 13 20 7 11 1027.5 1027.5 0.0
18/07:30am 12.1 10.2 6.8 70 2.5 NE 6 9 3 5 1027.2 1027.2 0.0
18/07:00am 10.2 8.0 6.2 76 1.9 NNE 7 11 4 6 1026.8 1026.8 0.0
18/06:30am 10.3 9.0 6.1 75 1.9 E 2 7 1 4 1026.3 1026.3 0.0
18/06:00am 11.5 9.5 6.4 71 2.4 ESE 6 7 3 4 1026.0 1026.0 0.0
18/05:30am 11.4 9.9 6.7 73 2.2 E 4 7 2 4 1025.8 1025.7 0.0
18/05:00am 11.1 9.3 7.2 77 1.9 NE 6 9 3 5 1025.8 1025.7 0.0
18/04:30am 11.4 9.9 6.9 74 2.1 ENE 4 7 2 4 1025.5 1025.4 0.0
18/04:00am 12.1 11.0 7.0 71 2.4 ENE 2 9 1 5 1025.2 1025.1 0.0
18/03:30am 13.3 11.5 7.3 67 2.9 SE 6 7 3 4 1025.0 1024.9 0.0
18/03:00am 13.7 11.8 7.5 66 3.0 SSE 7 7 4 4 1024.8 1024.7 0.0
18/02:30am 14.0 12.2 7.3 64 3.3 SSE 6 7 3 4 1024.9 1024.8 0.0
18/02:00am 14.4 12.5 7.5 63 3.4 S 7 11 4 6 1025.0 1024.9 0.0
18/01:30am 14.9 12.6 7.5 61 3.6 S 9 13 5 7 1024.9 1024.8 0.0
18/01:00am 15.4 12.3 7.4 59 4.0 S 13 19 7 10 1024.9 1024.8 0.0
18/12:30am 15.7 12.0 8.0 60 3.9 SSW 17 20 9 11 1024.8 1024.7 0.0
18/12:00am 15.9 12.3 8.4 61 3.8 S 17 22 9 12 1024.6 1024.5 0.0
 
Date/Time
CST
Temp
°C
App
Temp
°C
Dew
Point
°C
Rel
Hum
%
Delta-T
°C
Wind Press
QNH
hPa
Press
MSL
hPa
Rain since
9am
mm
Dir  Spd
km/h
Gust
km/h
Spd
kts
Gust
kts
17/11:30pm 16.2 12.8 9.2 63 3.6 S 17 22 9 12 1024.5 1024.4 0.0
17/11:00pm 16.5 14.1 9.9 65 3.5 S 13 19 7 10 1024.4 1024.3 0.0
17/10:30pm 17.1 13.6 10.2 64 3.6 S 19 28 10 15 1024.3 1024.2 0.0
17/10:00pm 17.2 14.8 9.9 62 3.8 SSW 13 17 7 9 1024.0 1023.9 0.0
17/09:30pm 17.6 13.2 10.5 63 3.8 SSW 24 28 13 15 1023.6 1023.5 0.0
17/09:00pm 18.2 13.7 11.3 64 3.7 SSW 26 33 14 18 1023.3 1023.2 0.0
17/08:30pm 18.6 14.7 12.1 66 3.6 SSW 24 33 13 18 1023.1 1023.0 0.0
17/08:00pm 18.8 16.1 12.8 68 3.4 SW 19 22 10 12 1022.8 1022.7 0.0
17/07:30pm 19.3 15.6 12.6 65 3.7 SW 24 33 13 18 1022.5 1022.4 0.0
17/07:00pm 19.2 15.3 12.2 64 3.9 SSW 24 28 13 15 1021.8 1021.7 0.0
17/06:30pm 19.4 15.0 11.7 61 4.2 SSW 26 33 14 18 1021.4 1021.3 0.0
17/06:00pm 19.8 14.1 11.8 60 4.4 SSW 33 43 18 23 1020.8 1020.7 0.0
17/05:30pm 20.5 16.7 14.6 69 3.4 SW 28 35 15 19 1019.9 1019.8 0.0
17/05:00pm 21.3 18.4 14.0 63 4.2 SSW 22 32 12 17 1019.2 1019.1 0.0
17/04:30pm 21.6 17.1 13.8 61 4.5 SSW 30 43 16 23 1019.0 1018.9 0.0
17/04:00pm 22.7 17.0 12.9 54 5.6 SSW 35 41 19 22 1018.4 1018.3 0.0
17/03:30pm 22.9 17.5 12.2 51 6.1 SSW 32 41 17 22 1017.9 1017.8 0.0
17/03:00pm 22.9 18.7 13.4 55 5.5 SSW 28 35 15 19 1017.6 1017.5 0.0
17/02:30pm 23.7 19.3 14.1 55 5.6 SSW 30 35 16 19 1017.3 1017.2 0.0
17/02:00pm 23.9 20.0 13.4 51 6.1 SW 26 32 14 17 1016.8 1016.7 0.0
17/01:30pm 24.0 19.8 13.5 52 6.1 SSW 28 33 15 18 1016.6 1016.5 0.0
17/01:00pm 25.2 21.4 13.7 49 6.8 SW 26 35 14 19 1016.5 1016.4 0.0
17/12:46pm 25.1 19.9 14.6 52 6.3 SW 35 43 19 23 1016.5 1016.4 0.0
17/12:30pm 27.0 22.5 12.6 41 8.4 W 28 37 15 20 1016.6 1016.5 0.0
17/12:07pm 29.0 21.3 7.0 25 11.8 NW 37 50 20 27 1016.4 1016.3 0.0
17/12:00pm 30.9 20.9 1.3 15 14.5 NW 43 56 23 30 1016.5 1016.4 0.0
17/11:30am 29.8 20.6 1.3 16 13.9 NNW 39 52 21 28 1016.5 1016.4 0.0
17/11:00am 28.7 20.8 2.1 18 13.1 NNW 33 44 18 24 1016.5 1016.4 0.0
17/10:32am 29.0 21.9 1.5 17 13.4 NNW 28 57 15 31 1016.6 1016.5 0.0
17/10:30am 29.1 23.3 2.4 18 13.2 NNW 22 44 12 24 1016.6 1016.5 0.0
17/10:28am 29.0 23.8 2.3 18 13.2 NW 19 43 10 23 1016.6 1016.5 0.0
17/10:00am 28.0 23.1 4.3 22 12.0 NNW 19 24 10 13 1016.5 1016.4 0.0
17/09:30am 26.7 21.8 5.1 25 11.0 N 20 30 11 16 1016.8 1016.7 0.0
17/09:00am 26.2 20.9 5.2 26 10.7 N 22 28 12 15 1017.3 1017.2 0.0
17/08:30am 26.9 20.8 4.6 24 11.3 NNW 26 35 14 19 1017.4 1017.3 0.0
17/08:00am 24.6 22.5 8.1 35 8.8 N 9 19 5 10 1017.4 1017.3 0.0
17/07:30am 23.8 21.9 9.0 39 8.0 S 9 13 5 7 1016.6 1016.5 0.0
17/07:00am 23.6 20.6 7.7 36 8.4 SSW 13 17 7 9 1016.0 1015.9 0.0
17/06:30am 25.5 20.6 5.1 27 10.3 NW 20 33 11 18 1015.7 1015.6 0.0
17/06:00am 26.9 22.9 2.7 21 11.9 NW 13 24 7 13 1014.8 1014.7 0.0
17/05:30am 27.1 23.1 2.9 21 11.9 N 13 19 7 10 1013.7 1013.6 0.0
17/05:00am 27.6 21.9 2.6 20 12.3 NNW 22 32 12 17 1013.5 1013.4 0.0
17/04:30am 27.8 21.2 2.1 19 12.5 N 26 33 14 18 1012.6 1012.5 0.0
17/04:00am 27.5 22.1 2.6 20 12.2 NNE 20 32 11 17 1012.4 1012.3 0.0
17/03:30am 26.6 20.8 2.5 21 11.8 NNE 22 28 12 15 1012.4 1012.3 0.0
17/03:00am 26.6 21.2 2.5 21 11.8 NNE 20 28 11 15 1012.7 1012.6 0.0
17/02:30am 26.0 20.3 2.7 22 11.4 NNE 22 28 12 15 1012.7 1012.6 0.0
17/02:00am 25.3 19.9 2.7 23 11.0 NNE 20 26 11 14 1013.0 1012.9 0.0
17/01:30am 25.1 19.9 2.5 23 10.9 NE 19 24 10 13 1013.1 1013.0 0.0
17/01:00am 25.9 20.5 2.6 22 11.3 NNE 20 24 11 13 1013.4 1013.3 0.0
17/12:30am 26.1 20.4 2.7 22 11.4 NNE 22 28 12 15 1013.4 1013.3 0.0
17/12:00am 25.7 19.9 2.4 22 11.3 NE 22 28 12 15 1013.3 1013.2 0.0
 
Date/Time
CST
Temp
°C
App
Temp
°C
Dew
Point
°C
Rel
Hum
%
Delta-T
°C
Wind Press
QNH
hPa
Press
MSL
hPa
Rain since
9am
mm
Dir  Spd
km/h
Gust
km/h
Spd
kts
Gust
kts
16/11:30pm 25.6 19.9 2.9 23 11.1 NE 22 28 12 15 1013.5 1013.4 0.0
16/11:00pm 25.8 20.7 3.1 23 11.1 NE 19 20 10 11 1014.0 1013.9 0.0
16/10:30pm 26.3 21.7 3.5 23 11.3 NE 17 20 9 11 1014.2 1014.1 0.0
16/10:00pm 26.2 21.7 4.1 24 11.1 NE 17 19 9 10 1014.3 1014.2 0.0
16/09:30pm 26.2 21.7 4.1 24 11.1 NE 17 20 9 11 1014.4 1014.3 0.0
16/09:00pm 26.5 21.6 4.3 24 11.2 NE 19 24 10 13 1014.6 1014.5 0.0
16/08:30pm 27.1 22.2 4.2 23 11.5 NE 19 22 10 12 1014.5 1014.4 0.0
16/08:00pm 26.7 22.1 3.9 23 11.4 NE 17 19 9 10 1014.4 1014.3 0.0
16/07:30pm 26.3 22.5 4.1 24 11.1 NNE 13 15 7 8 1014.2 1014.1 0.0
16/07:00pm 29.2 24.7 4.0 20 12.8 NNE 17 20 9 11 1014.0 1013.9 0.0
16/06:30pm 29.8 25.2 3.7 19 13.3 N 17 20 9 11 1013.9 1013.8 0.0
16/06:00pm 31.0 26.4 3.9 18 13.9 N 17 22 9 12 1013.6 1013.5 0.0
16/05:30pm 32.4 26.3 2.5 15 15.1 NNW 24 33 13 18 1013.4 1013.3 0.0
16/05:00pm 33.3 26.3 2.2 14 15.8 NNW 28 37 15 20 1013.2 1013.1 0.0
16/04:30pm 34.3 27.1 3.0 14 16.2 NNW 30 41 16 22 1013.3 1013.2 0.0

Latest Capital City Observations: Canberra | Sydney | Melbourne | Brisbane | Adelaide | Perth | Hobart | Darwin

Other formats

Comma delimited format used in spreadsheet applications
http://www.bom.gov.au/fwo/IDS60901/IDS60901.95676.axf

JavaScript Object Notation format (JSON) in row-major order
http://www.bom.gov.au/fwo/IDS60901/IDS60901.95676.json

Data quality

Most of these data are generated automatically and are frequently updated. Quality checks on data are not normally performed. It is possible for incorrect values to appear. Refer to information at About Latest Weather Observations and please check the disclaimer before using these data.